sensor_id;sensor_type;location;lat;lon;timestamp;pressure;altitude;pressure_sealevel;temperature;humidity
75409;BME280;63979;55.644;37.734;2022-12-20T00:02:13;101410.72;;;-2.57;74.62
75409;BME280;63979;55.644;37.734;2022-12-20T00:07:15;101417.69;;;-2.58;74.94
75409;BME280;63979;55.644;37.734;2022-12-20T00:12:16;101416.84;;;-2.57;75.64
75409;BME280;63979;55.644;37.734;2022-12-20T00:17:17;101401.97;;;-2.64;74.92
75409;BME280;63979;55.644;37.734;2022-12-20T00:22:18;101414.16;;;-2.63;74.75
75409;BME280;63979;55.644;37.734;2022-12-20T00:27:19;101392.38;;;-2.63;74.73
75409;BME280;63979;55.644;37.734;2022-12-20T00:32:20;101414.09;;;-2.70;75.31
75409;BME280;63979;55.644;37.734;2022-12-20T00:37:21;101407.97;;;-2.71;74.79
75409;BME280;63979;55.644;37.734;2022-12-20T00:42:22;101385.31;;;-2.73;75.09
75409;BME280;63979;55.644;37.734;2022-12-20T00:47:23;101378.41;;;-2.68;74.73
75409;BME280;63979;55.644;37.734;2022-12-20T00:52:25;101376.63;;;-2.69;75.39
75409;BME280;63979;55.644;37.734;2022-12-20T00:57:26;101373.91;;;-2.78;75.49
75409;BME280;63979;55.644;37.734;2022-12-20T01:02:27;101359.09;;;-2.78;75.69
75409;BME280;63979;55.644;37.734;2022-12-20T01:07:27;101345.94;;;-2.89;75.49
75409;BME280;63979;55.644;37.734;2022-12-20T01:12:29;101329.34;;;-2.95;75.37
75409;BME280;63979;55.644;37.734;2022-12-20T01:17:30;101342.41;;;-2.94;76.40
75409;BME280;63979;55.644;37.734;2022-12-20T01:22:31;101369.22;;;-3.11;75.64
75409;BME280;63979;55.644;37.734;2022-12-20T01:27:32;101318.78;;;-3.07;75.11
75409;BME280;63979;55.644;37.734;2022-12-20T01:32:33;101337.06;;;-3.07;75.58
75409;BME280;63979;55.644;37.734;2022-12-20T01:37:34;101340.41;;;-3.16;75.52
75409;BME280;63979;55.644;37.734;2022-12-20T01:42:36;101329.00;;;-3.24;75.44
75409;BME280;63979;55.644;37.734;2022-12-20T01:47:37;101334.31;;;-3.15;75.99
75409;BME280;63979;55.644;37.734;2022-12-20T01:52:42;101298.38;;;-3.40;75.31
75409;BME280;63979;55.644;37.734;2022-12-20T01:57:58;101329.84;;;-3.28;74.97
75409;BME280;63979;55.644;37.734;2022-12-20T02:03:04;101330.75;;;-3.25;76.16
75409;BME280;63979;55.644;37.734;2022-12-20T02:08:07;101329.78;;;-3.33;76.30
75409;BME280;63979;55.644;37.734;2022-12-20T02:13:19;101286.88;;;-3.53;76.35
75409;BME280;63979;55.644;37.734;2022-12-20T02:18:34;101306.94;;;-3.51;75.81
75409;BME280;63979;55.644;37.734;2022-12-20T02:34:09;101299.56;;;-3.82;75.72
75409;BME280;63979;55.644;37.734;2022-12-20T02:39:12;101283.75;;;-3.94;75.32
75409;BME280;63979;55.644;37.734;2022-12-20T02:44:17;101292.34;;;-4.01;75.16
75409;BME280;63979;55.644;37.734;2022-12-20T02:49:39;101292.38;;;-3.98;74.51
75409;BME280;63979;55.644;37.734;2022-12-20T02:54:41;101272.38;;;-4.01;74.35
75409;BME280;63979;55.644;37.734;2022-12-20T02:59:54;101279.19;;;-4.11;73.36
75409;BME280;63979;55.644;37.734;2022-12-20T03:04:58;101252.91;;;-4.23;73.70
75409;BME280;63979;55.644;37.734;2022-12-20T03:09:59;101252.88;;;-4.26;74.29
75409;BME280;63979;55.644;37.734;2022-12-20T03:15:00;101255.31;;;-4.38;74.29
75409;BME280;63979;55.644;37.734;2022-12-20T03:20:02;101237.00;;;-4.44;73.93
75409;BME280;63979;55.644;37.734;2022-12-20T03:25:05;101237.81;;;-4.48;73.86
75409;BME280;63979;55.644;37.734;2022-12-20T03:30:07;101231.56;;;-4.56;74.50
75409;BME280;63979;55.644;37.734;2022-12-20T03:35:09;101217.53;;;-4.67;73.49
75409;BME280;63979;55.644;37.734;2022-12-20T03:40:10;101216.56;;;-4.73;73.13
75409;BME280;63979;55.644;37.734;2022-12-20T03:45:12;101222.53;;;-4.80;73.36
75409;BME280;63979;55.644;37.734;2022-12-20T03:50:13;101209.34;;;-4.89;71.98
75409;BME280;63979;55.644;37.734;2022-12-20T03:55:14;101194.50;;;-4.94;71.44
75409;BME280;63979;55.644;37.734;2022-12-20T04:00:16;101189.31;;;-4.94;70.92
75409;BME280;63979;55.644;37.734;2022-12-20T04:05:17;101185.59;;;-5.10;70.21
75409;BME280;63979;55.644;37.734;2022-12-20T04:10:18;101177.69;;;-5.16;70.83
75409;BME280;63979;55.644;37.734;2022-12-20T04:15:19;101127.69;;;-5.50;70.05
75409;BME280;63979;55.644;37.734;2022-12-20T04:20:20;101111.03;;;-5.58;69.44
75409;BME280;63979;55.644;37.734;2022-12-20T04:25:21;101155.81;;;-5.26;68.55
75409;BME280;63979;55.644;37.734;2022-12-20T04:30:22;101152.22;;;-5.34;68.63
75409;BME280;63979;55.644;37.734;2022-12-20T04:35:23;101156.50;;;-5.38;68.49
75409;BME280;63979;55.644;37.734;2022-12-20T04:40:24;101156.22;;;-5.54;66.94
75409;BME280;63979;55.644;37.734;2022-12-20T04:45:26;101140.69;;;-5.50;67.57
75409;BME280;63979;55.644;37.734;2022-12-20T04:50:27;101162.44;;;-5.45;66.14
75409;BME280;63979;55.644;37.734;2022-12-20T04:55:28;101150.25;;;-5.47;65.64
75409;BME280;63979;55.644;37.734;2022-12-20T05:00:28;101144.19;;;-5.48;65.33
75409;BME280;63979;55.644;37.734;2022-12-20T05:05:30;101131.94;;;-5.55;65.91
75409;BME280;63979;55.644;37.734;2022-12-20T05:10:30;101156.97;;;-5.58;65.34
75409;BME280;63979;55.644;37.734;2022-12-20T05:15:32;101145.63;;;-5.63;65.66
75409;BME280;63979;55.644;37.734;2022-12-20T05:20:32;101090.47;;;-5.95;65.41
75409;BME280;63979;55.644;37.734;2022-12-20T05:25:38;101125.53;;;-5.72;65.91
75409;BME280;63979;55.644;37.734;2022-12-20T05:30:58;101129.00;;;-5.72;64.93
75409;BME280;63979;55.644;37.734;2022-12-20T05:35:59;101110.06;;;-5.65;64.29
75409;BME280;63979;55.644;37.734;2022-12-20T05:41:00;101102.28;;;-5.63;63.57
75409;BME280;63979;55.644;37.734;2022-12-20T05:46:02;101093.84;;;-5.51;64.02
75409;BME280;63979;55.644;37.734;2022-12-20T05:51:03;101081.72;;;-5.49;64.40
75409;BME280;63979;55.644;37.734;2022-12-20T05:56:05;101077.41;;;-5.49;63.58
75409;BME280;63979;55.644;37.734;2022-12-20T06:01:07;101068.56;;;-5.57;64.87
75409;BME280;63979;55.644;37.734;2022-12-20T06:06:08;101055.44;;;-5.66;64.54
75409;BME280;63979;55.644;37.734;2022-12-20T06:11:09;101066.69;;;-5.67;64.48
75409;BME280;63979;55.644;37.734;2022-12-20T06:16:09;101028.47;;;-5.71;63.85
75409;BME280;63979;55.644;37.734;2022-12-20T06:21:10;101073.78;;;-5.57;63.50
75409;BME280;63979;55.644;37.734;2022-12-20T06:26:11;101068.00;;;-5.41;63.98
75409;BME280;63979;55.644;37.734;2022-12-20T06:31:12;101068.00;;;-5.41;62.58
75409;BME280;63979;55.644;37.734;2022-12-20T06:36:13;101062.00;;;-5.35;62.83
75409;BME280;63979;55.644;37.734;2022-12-20T06:41:14;101054.31;;;-5.27;62.82
75409;BME280;63979;55.644;37.734;2022-12-20T06:46:15;101058.84;;;-5.16;63.12
75409;BME280;63979;55.644;37.734;2022-12-20T06:51:16;101007.41;;;-5.34;61.18
75409;BME280;63979;55.644;37.734;2022-12-20T06:56:16;101030.09;;;-5.22;61.89
75409;BME280;63979;55.644;37.734;2022-12-20T07:01:17;101009.50;;;-5.10;60.80
75409;BME280;63979;55.644;37.734;2022-12-20T07:06:18;101005.59;;;-5.38;61.72
75409;BME280;63979;55.644;37.734;2022-12-20T07:11:19;100994.44;;;-5.30;61.00
75409;BME280;63979;55.644;37.734;2022-12-20T07:16:21;100992.75;;;-5.27;60.79
75409;BME280;63979;55.644;37.734;2022-12-20T07:21:22;100969.34;;;-5.25;60.90
75409;BME280;63979;55.644;37.734;2022-12-20T07:26:23;100958.22;;;-5.17;60.39
75409;BME280;63979;55.644;37.734;2022-12-20T07:31:24;100948.81;;;-5.04;59.94
75409;BME280;63979;55.644;37.734;2022-12-20T07:36:25;100904.94;;;-5.45;60.54
75409;BME280;63979;55.644;37.734;2022-12-20T07:41:26;100930.75;;;-4.90;59.72
75409;BME280;63979;55.644;37.734;2022-12-20T07:46:27;100907.28;;;-4.12;57.80
75409;BME280;63979;55.644;37.734;2022-12-20T07:51:31;100891.50;;;-1.36;49.02
75409;BME280;63979;55.644;37.734;2022-12-20T07:56:36;100825.81;;;2.06;39.93
75409;BME280;63979;55.644;37.734;2022-12-20T08:01:40;100862.31;;;3.17;37.16
75409;BME280;63979;55.644;37.734;2022-12-20T08:06:42;100840.56;;;2.62;38.12
75409;BME280;63979;55.644;37.734;2022-12-20T08:11:46;100830.16;;;5.05;32.82
75409;BME280;63979;55.644;37.734;2022-12-20T08:16:48;100828.22;;;5.10;32.06
75409;BME280;63979;55.644;37.734;2022-12-20T08:21:49;100824.28;;;4.95;31.67
75409;BME280;63979;55.644;37.734;2022-12-20T08:26:50;100819.78;;;5.27;31.35
75409;BME280;63979;55.644;37.734;2022-12-20T08:31:51;100806.09;;;6.46;29.44
75409;BME280;63979;55.644;37.734;2022-12-20T08:36:52;100792.66;;;7.87;27.17
75409;BME280;63979;55.644;37.734;2022-12-20T08:41:54;100810.78;;;7.99;27.57
75409;BME280;63979;55.644;37.734;2022-12-20T08:46:55;100794.09;;;8.95;25.86
75409;BME280;63979;55.644;37.734;2022-12-20T08:51:56;100789.78;;;9.30;25.30
75409;BME280;63979;55.644;37.734;2022-12-20T08:56:57;100781.13;;;8.28;26.21
75409;BME280;63979;55.644;37.734;2022-12-20T09:01:58;100772.72;;;7.55;26.76
75409;BME280;63979;55.644;37.734;2022-12-20T09:06:59;100782.44;;;7.77;26.09
75409;BME280;63979;55.644;37.734;2022-12-20T09:12:00;100746.16;;;8.17;25.89
75409;BME280;63979;55.644;37.734;2022-12-20T09:17:01;100741.28;;;9.05;23.90
75409;BME280;63979;55.644;37.734;2022-12-20T09:22:02;100714.84;;;9.55;23.98
75409;BME280;63979;55.644;37.734;2022-12-20T09:27:04;100707.53;;;8.87;24.73
75409;BME280;63979;55.644;37.734;2022-12-20T09:32:05;100717.25;;;8.09;25.18
75409;BME280;63979;55.644;37.734;2022-12-20T09:37:06;100695.34;;;9.00;24.89
75409;BME280;63979;55.644;37.734;2022-12-20T09:42:08;100678.28;;;10.26;22.14
75409;BME280;63979;55.644;37.734;2022-12-20T09:47:15;100673.44;;;10.98;21.88
75409;BME280;63979;55.644;37.734;2022-12-20T10:03:02;100641.44;;;11.28;22.04
75409;BME280;63979;55.644;37.734;2022-12-20T10:13:39;100636.09;;;4.50;29.95
75409;BME280;63979;55.644;37.734;2022-12-20T10:24:04;100611.28;;;1.82;36.23
75409;BME280;63979;55.644;37.734;2022-12-20T10:29:10;100595.06;;;5.44;29.82
75409;BME280;63979;55.644;37.734;2022-12-20T10:34:11;100576.47;;;7.67;26.25
75409;BME280;63979;55.644;37.734;2022-12-20T10:39:12;100569.56;;;8.21;25.38
75409;BME280;63979;55.644;37.734;2022-12-20T10:44:28;100560.59;;;6.41;27.35
75409;BME280;63979;55.644;37.734;2022-12-20T10:49:32;100556.97;;;6.20;28.43
75409;BME280;63979;55.644;37.734;2022-12-20T10:54:38;100542.22;;;7.20;27.43
75409;BME280;63979;55.644;37.734;2022-12-20T10:59:43;100550.97;;;6.38;27.79
75409;BME280;63979;55.644;37.734;2022-12-20T11:10:23;100541.75;;;3.34;32.72
75409;BME280;63979;55.644;37.734;2022-12-20T11:15:28;100500.22;;;1.23;36.41
75409;BME280;63979;55.644;37.734;2022-12-20T11:20:46;100522.69;;;-0.16;40.50
75409;BME280;63979;55.644;37.734;2022-12-20T11:31:15;100527.38;;;1.67;37.45
75409;BME280;63979;55.644;37.734;2022-12-20T11:42:11;100540.84;;;-0.73;42.31
75409;BME280;63979;55.644;37.734;2022-12-20T11:47:37;100527.97;;;-1.96;45.66
75409;BME280;63979;55.644;37.734;2022-12-20T11:53:04;100523.16;;;-2.75;48.86
75409;BME280;63979;55.644;37.734;2022-12-20T12:03:38;100522.38;;;-3.27;50.61
75409;BME280;63979;55.644;37.734;2022-12-20T12:14:05;100507.59;;;-3.92;54.03
75409;BME280;63979;55.644;37.734;2022-12-20T12:19:10;100494.56;;;-4.11;54.15
75409;BME280;63979;55.644;37.734;2022-12-20T12:24:20;100498.84;;;-4.45;54.93
75409;BME280;63979;55.644;37.734;2022-12-20T12:29:23;100497.88;;;-4.69;56.00
75409;BME280;63979;55.644;37.734;2022-12-20T12:40:11;100505.53;;;-5.02;58.09
75409;BME280;63979;55.644;37.734;2022-12-20T12:45:35;100501.06;;;-5.22;59.38
75409;BME280;63979;55.644;37.734;2022-12-20T12:50:41;100502.72;;;-5.35;59.90
75409;BME280;63979;55.644;37.734;2022-12-20T12:55:47;100504.28;;;-5.57;60.48
75409;BME280;63979;55.644;37.734;2022-12-20T13:01:01;100516.50;;;-5.48;60.58
75409;BME280;63979;55.644;37.734;2022-12-20T13:16:36;100502.63;;;-5.49;61.64
75409;BME280;63979;55.644;37.734;2022-12-20T13:22:25;100503.53;;;-5.44;61.50
75409;BME280;63979;55.644;37.734;2022-12-20T13:43:03;100481.69;;;-5.66;61.89
75409;BME280;63979;55.644;37.734;2022-12-20T13:48:06;100489.53;;;-5.58;61.77
75409;BME280;63979;55.644;37.734;2022-12-20T13:53:16;100488.63;;;-5.66;62.29
75409;BME280;63979;55.644;37.734;2022-12-20T13:58:29;100495.56;;;-5.65;62.30
75409;BME280;63979;55.644;37.734;2022-12-20T14:03:39;100490.38;;;-5.63;62.64
75409;BME280;63979;55.644;37.734;2022-12-20T14:08:45;100486.03;;;-5.65;62.18
75409;BME280;63979;55.644;37.734;2022-12-20T14:25:12;100469.72;;;-5.42;62.84
75409;BME280;63979;55.644;37.734;2022-12-20T14:30:40;100472.31;;;-5.45;62.26
75409;BME280;63979;55.644;37.734;2022-12-20T14:35:46;100466.09;;;-5.64;62.78
75409;BME280;63979;55.644;37.734;2022-12-20T14:40:47;100459.09;;;-5.77;62.94
75409;BME280;63979;55.644;37.734;2022-12-20T14:45:49;100477.28;;;-5.77;63.52
75409;BME280;63979;55.644;37.734;2022-12-20T14:50:52;100478.91;;;-5.91;64.34
75409;BME280;63979;55.644;37.734;2022-12-20T14:55:55;100456.28;;;-6.05;64.10
75409;BME280;63979;55.644;37.734;2022-12-20T15:01:01;100471.13;;;-5.91;64.71
75409;BME280;63979;55.644;37.734;2022-12-20T15:06:03;100472.69;;;-6.13;64.56
75409;BME280;63979;55.644;37.734;2022-12-20T15:21:22;100472.47;;;-6.35;65.65
75409;BME280;63979;55.644;37.734;2022-12-20T15:26:29;100486.25;;;-6.40;66.10
75409;BME280;63979;55.644;37.734;2022-12-20T15:31:32;100481.06;;;-6.40;66.07
75409;BME280;63979;55.644;37.734;2022-12-20T15:36:34;100480.06;;;-6.54;66.51
75409;BME280;63979;55.644;37.734;2022-12-20T15:41:43;100447.75;;;-6.81;67.06
75409;BME280;63979;55.644;37.734;2022-12-20T15:46:45;100481.75;;;-6.58;67.40
75409;BME280;63979;55.644;37.734;2022-12-20T15:51:47;100478.22;;;-6.62;67.67
75409;BME280;63979;55.644;37.734;2022-12-20T15:56:49;100479.13;;;-6.60;67.74
75409;BME280;63979;55.644;37.734;2022-12-20T16:01:50;100447.78;;;-6.78;68.02
75409;BME280;63979;55.644;37.734;2022-12-20T16:06:51;100457.41;;;-6.66;68.61
75409;BME280;63979;55.644;37.734;2022-12-20T16:11:55;100453.88;;;-6.74;69.79
75409;BME280;63979;55.644;37.734;2022-12-20T16:16:56;100462.53;;;-6.74;69.30
75409;BME280;63979;55.644;37.734;2022-12-20T16:21:57;100461.69;;;-6.73;69.54
75409;BME280;63979;55.644;37.734;2022-12-20T16:26:58;100465.13;;;-6.74;70.11
75409;BME280;63979;55.644;37.734;2022-12-20T16:31:59;100460.75;;;-6.78;69.69
75409;BME280;63979;55.644;37.734;2022-12-20T16:36:59;100466.84;;;-6.74;69.47
75409;BME280;63979;55.644;37.734;2022-12-20T16:42:00;100457.34;;;-6.74;69.57
75409;BME280;63979;55.644;37.734;2022-12-20T16:47:02;100415.66;;;-6.89;69.34
75409;BME280;63979;55.644;37.734;2022-12-20T16:52:04;100462.72;;;-6.58;69.31
75409;BME280;63979;55.644;37.734;2022-12-20T16:57:07;100421.91;;;-6.72;69.01
75409;BME280;63979;55.644;37.734;2022-12-20T17:02:29;100462.75;;;-6.54;68.99
75409;BME280;63979;55.644;37.734;2022-12-20T17:07:32;100454.94;;;-6.58;68.83
75409;BME280;63979;55.644;37.734;2022-12-20T17:12:33;100475.69;;;-6.58;69.16
75409;BME280;63979;55.644;37.734;2022-12-20T17:17:34;100467.84;;;-6.62;69.46
75409;BME280;63979;55.644;37.734;2022-12-20T17:22:35;100465.19;;;-6.68;69.61
75409;BME280;63979;55.644;37.734;2022-12-20T17:27:37;100472.09;;;-6.70;70.07
75409;BME280;63979;55.644;37.734;2022-12-20T17:32:38;100461.69;;;-6.73;70.37
75409;BME280;63979;55.644;37.734;2022-12-20T17:37:39;100460.78;;;-6.75;70.36
75409;BME280;63979;55.644;37.734;2022-12-20T17:42:40;100465.94;;;-6.78;70.91
75409;BME280;63979;55.644;37.734;2022-12-20T17:47:42;100455.41;;;-6.93;70.78
75409;BME280;63979;55.644;37.734;2022-12-20T17:52:45;100457.16;;;-6.92;71.29
75409;BME280;63979;55.644;37.734;2022-12-20T17:57:47;100452.81;;;-6.93;71.68
75409;BME280;63979;55.644;37.734;2022-12-20T18:02:51;100458.03;;;-6.88;71.02
75409;BME280;63979;55.644;37.734;2022-12-20T18:07:54;100441.56;;;-6.92;71.08
75409;BME280;63979;55.644;37.734;2022-12-20T18:12:56;100462.22;;;-7.00;71.58
75409;BME280;63979;55.644;37.734;2022-12-20T18:17:58;100478.66;;;-6.99;71.38
75409;BME280;63979;55.644;37.734;2022-12-20T18:22:59;100463.88;;;-7.05;71.72
75409;BME280;63979;55.644;37.734;2022-12-20T18:28:00;100463.00;;;-7.05;72.08
75409;BME280;63979;55.644;37.734;2022-12-20T18:33:01;100462.09;;;-7.09;72.28
75409;BME280;63979;55.644;37.734;2022-12-20T18:38:02;100460.31;;;-7.13;72.76
75409;BME280;63979;55.644;37.734;2022-12-20T18:43:03;100460.44;;;-7.04;72.46
75409;BME280;63979;55.644;37.734;2022-12-20T18:48:04;100456.13;;;-7.03;72.75
75409;BME280;63979;55.644;37.734;2022-12-20T18:53:05;100454.38;;;-7.04;73.17
75409;BME280;63979;55.644;37.734;2022-12-20T18:58:06;100452.00;;;-6.87;72.96
75409;BME280;63979;55.644;37.734;2022-12-20T19:03:07;100445.22;;;-6.73;72.67
75409;BME280;63979;55.644;37.734;2022-12-20T19:08:08;100457.44;;;-6.65;72.27
75409;BME280;63979;55.644;37.734;2022-12-20T19:13:10;100458.31;;;-6.63;72.29
75409;BME280;63979;55.644;37.734;2022-12-20T19:18:11;100447.94;;;-6.63;72.70
75409;BME280;63979;55.644;37.734;2022-12-20T19:23:12;100404.38;;;-6.93;73.04
75409;BME280;63979;55.644;37.734;2022-12-20T19:28:13;100454.75;;;-6.74;73.64
75409;BME280;63979;55.644;37.734;2022-12-20T19:33:14;100452.13;;;-6.75;73.98
75409;BME280;63979;55.644;37.734;2022-12-20T19:38:15;100453.94;;;-6.68;74.34
75409;BME280;63979;55.644;37.734;2022-12-20T19:43:17;100448.03;;;-6.56;74.16
75409;BME280;63979;55.644;37.734;2022-12-20T19:48:18;100447.19;;;-6.52;73.64
75409;BME280;63979;55.644;37.734;2022-12-20T19:53:19;100450.75;;;-6.44;73.38
75409;BME280;63979;55.644;37.734;2022-12-20T19:58:20;100447.41;;;-6.28;72.73
75409;BME280;63979;55.644;37.734;2022-12-20T20:03:21;100432.63;;;-6.38;72.01
75409;BME280;63979;55.644;37.734;2022-12-20T20:08:22;100455.13;;;-6.39;72.93
75409;BME280;63979;55.644;37.734;2022-12-20T20:13:24;100452.56;;;-6.33;73.46
75409;BME280;63979;55.644;37.734;2022-12-20T20:18:26;100462.31;;;-6.12;73.17
75409;BME280;63979;55.644;37.734;2022-12-20T20:23:28;100455.47;;;-5.98;72.58
75409;BME280;63979;55.644;37.734;2022-12-20T20:28:29;100466.00;;;-5.82;72.19
75409;BME280;63979;55.644;37.734;2022-12-20T20:33:30;100464.25;;;-5.83;71.95
75409;BME280;63979;55.644;37.734;2022-12-20T20:38:33;100464.28;;;-5.77;71.35
75409;BME280;63979;55.644;37.734;2022-12-20T20:43:35;100458.34;;;-5.59;70.90
75409;BME280;63979;55.644;37.734;2022-12-20T20:48:37;100466.25;;;-5.46;70.54
75409;BME280;63979;55.644;37.734;2022-12-20T20:53:38;100462.88;;;-5.29;70.40
75409;BME280;63979;55.644;37.734;2022-12-20T20:58:39;100464.69;;;-5.18;69.26
75409;BME280;63979;55.644;37.734;2022-12-20T21:03:40;100473.38;;;-5.11;68.81
75409;BME280;63979;55.644;37.734;2022-12-20T21:08:42;100468.22;;;-5.05;68.75
75409;BME280;63979;55.644;37.734;2022-12-20T21:13:44;100471.56;;;-5.21;70.44
75409;BME280;63979;55.644;37.734;2022-12-20T21:18:52;100461.13;;;-5.30;70.05
75409;BME280;63979;55.644;37.734;2022-12-20T21:23:53;100469.81;;;-5.28;70.44
75409;BME280;63979;55.644;37.734;2022-12-20T21:28:56;100474.25;;;-5.12;70.58
75409;BME280;63979;55.644;37.734;2022-12-20T21:33:57;100475.97;;;-5.16;70.85
75409;BME280;63979;55.644;37.734;2022-12-20T21:38:58;100477.72;;;-5.15;71.02
75409;BME280;63979;55.644;37.734;2022-12-20T21:44:00;100465.56;;;-5.19;71.68
75409;BME280;63979;55.644;37.734;2022-12-20T21:49:01;100441.09;;;-5.50;71.53
75409;BME280;63979;55.644;37.734;2022-12-20T21:54:02;100465.47;;;-5.29;71.34
75409;BME280;63979;55.644;37.734;2022-12-20T21:59:03;100473.41;;;-5.10;70.94
75409;BME280;63979;55.644;37.734;2022-12-20T22:04:05;100458.63;;;-5.12;70.23
75409;BME280;63979;55.644;37.734;2022-12-20T22:09:06;100464.72;;;-5.12;69.78
75409;BME280;63979;55.644;37.734;2022-12-20T22:14:11;100468.22;;;-5.05;69.06
75409;BME280;63979;55.644;37.734;2022-12-20T22:19:13;100456.06;;;-5.03;69.24
75409;BME280;63979;55.644;37.734;2022-12-20T22:24:15;100456.97;;;-4.98;68.85
75409;BME280;63979;55.644;37.734;2022-12-20T22:29:16;100449.09;;;-5.13;69.46
75409;BME280;63979;55.644;37.734;2022-12-20T22:34:17;100469.09;;;-5.02;68.91
75409;BME280;63979;55.644;37.734;2022-12-20T22:39:18;100459.53;;;-5.01;68.66
75409;BME280;63979;55.644;37.734;2022-12-20T22:44:19;100409.19;;;-5.12;68.61
75409;BME280;63979;55.644;37.734;2022-12-20T22:49:21;100448.38;;;-4.80;68.72
75409;BME280;63979;55.644;37.734;2022-12-20T22:54:22;100440.47;;;-5.00;69.39
75409;BME280;63979;55.644;37.734;2022-12-20T22:59:24;100441.34;;;-4.92;68.74
75409;BME280;63979;55.644;37.734;2022-12-20T23:04:25;100442.28;;;-4.79;69.02
75409;BME280;63979;55.644;37.734;2022-12-20T23:09:26;100446.63;;;-4.78;68.95
75409;BME280;63979;55.644;37.734;2022-12-20T23:14:27;100440.56;;;-4.82;69.60
75409;BME280;63979;55.644;37.734;2022-12-20T23:19:47;100425.72;;;-4.98;69.99
75409;BME280;63979;55.644;37.734;2022-12-20T23:25:27;100429.22;;;-4.88;69.84
75409;BME280;63979;55.644;37.734;2022-12-20T23:30:28;100418.88;;;-4.75;69.62
75409;BME280;63979;55.644;37.734;2022-12-20T23:35:29;100431.03;;;-4.64;69.21
75409;BME280;63979;55.644;37.734;2022-12-20T23:40:30;100417.16;;;-4.69;69.67
75409;BME280;63979;55.644;37.734;2022-12-20T23:45:31;100421.41;;;-4.90;70.19
75409;BME280;63979;55.644;37.734;2022-12-20T23:50:32;100422.31;;;-4.82;70.59
75409;BME280;63979;55.644;37.734;2022-12-20T23:55:33;100429.22;;;-4.87;71.20
